Gouch Mill, Missouri
Current Conditions -  °F | °C
As of 2:15 AM on Saturday 25 Oct 2014 (Local Time) from KVER Reporting Station
Scattered Clouds Scattered Clouds  
Wind Chill: 64°   Ceiling: Unl
Heat Index: 64°   Visibility: 10mi
Dew Point: 60°   Wind: 5mph
Humidity: 86%   Direction: 240°WSW
Pressure: 30"   Gusts: NA
Location:  38.8294°N, 92.5997°W
Report Text: KVER 250715Z AUTO 24004KT 10SM SCT046 18/16 A3000 RMK AO2 T01800157
Loading
Personal Weather Stations






























Interactive Weather Map
Tropical Storm Tracking
New forecast layout! Learn more

10-Day Weather Forecast

Advertisements
Track Severe Weather on mobile